sensor_id;sensor_type;location;lat;lon;timestamp;temperature;humidity
17918;DHT22;9084;50.956;3.106;2023-08-01T00:01:36;15.90;99.90
17918;DHT22;9084;50.956;3.106;2023-08-01T00:04:02;15.90;99.90
17918;DHT22;9084;50.956;3.106;2023-08-01T00:06:27;15.90;99.90
17918;DHT22;9084;50.956;3.106;2023-08-01T00:08:55;15.90;99.90
17918;DHT22;9084;50.956;3.106;2023-08-01T00:11:21;15.80;99.90
17918;DHT22;9084;50.956;3.106;2023-08-01T00:13:47;15.80;99.90
17918;DHT22;9084;50.956;3.106;2023-08-01T00:16:12;15.80;99.90
17918;DHT22;9084;50.956;3.106;2023-08-01T00:18:40;15.80;99.90
17918;DHT22;9084;50.956;3.106;2023-08-01T00:21:06;15.80;99.90
17918;DHT22;9084;50.956;3.106;2023-08-01T00:23:35;15.80;99.90
17918;DHT22;9084;50.956;3.106;2023-08-01T00:26:01;15.80;99.90
17918;DHT22;9084;50.956;3.106;2023-08-01T00:28:27;15.90;99.90
17918;DHT22;9084;50.956;3.106;2023-08-01T00:31:02;15.90;99.90
17918;DHT22;9084;50.956;3.106;2023-08-01T00:33:28;15.90;99.90
17918;DHT22;9084;50.956;3.106;2023-08-01T00:35:54;15.90;99.90
17918;DHT22;9084;50.956;3.106;2023-08-01T00:38:20;15.90;99.90
17918;DHT22;9084;50.956;3.106;2023-08-01T00:40:48;15.90;99.90
17918;DHT22;9084;50.956;3.106;2023-08-01T00:43:13;15.90;99.90
17918;DHT22;9084;50.956;3.106;2023-08-01T00:45:39;15.90;99.90
17918;DHT22;9084;50.956;3.106;2023-08-01T00:48:05;15.90;99.90
17918;DHT22;9084;50.956;3.106;2023-08-01T00:50:33;15.90;99.90
17918;DHT22;9084;50.956;3.106;2023-08-01T00:53:01;16.00;99.90
17918;DHT22;9084;50.956;3.106;2023-08-01T00:55:31;15.90;99.90
17918;DHT22;9084;50.956;3.106;2023-08-01T00:58:00;15.90;99.90
17918;DHT22;9084;50.956;3.106;2023-08-01T01:00:25;15.90;99.90
17918;DHT22;9084;50.956;3.106;2023-08-01T01:02:53;15.80;99.90
17918;DHT22;9084;50.956;3.106;2023-08-01T01:05:20;15.80;99.90
17918;DHT22;9084;50.956;3.106;2023-08-01T01:07:50;15.70;99.90
17918;DHT22;9084;50.956;3.106;2023-08-01T01:10:16;15.70;99.90
17918;DHT22;9084;50.956;3.106;2023-08-01T01:12:41;15.70;99.90
17918;DHT22;9084;50.956;3.106;2023-08-01T01:15:07;15.70;99.90
17918;DHT22;9084;50.956;3.106;2023-08-01T01:17:33;15.70;99.90
17918;DHT22;9084;50.956;3.106;2023-08-01T01:20:01;15.70;99.90
17918;DHT22;9084;50.956;3.106;2023-08-01T01:22:30;15.70;99.90
17918;DHT22;9084;50.956;3.106;2023-08-01T01:24:55;15.60;99.90
17918;DHT22;9084;50.956;3.106;2023-08-01T01:27:25;15.60;99.90
17918;DHT22;9084;50.956;3.106;2023-08-01T01:29:51;15.50;99.90
17918;DHT22;9084;50.956;3.106;2023-08-01T01:32:18;15.50;99.90
17918;DHT22;9084;50.956;3.106;2023-08-01T01:34:46;15.50;99.90
17918;DHT22;9084;50.956;3.106;2023-08-01T01:37:12;15.50;99.90
17918;DHT22;9084;50.956;3.106;2023-08-01T01:39:40;15.60;99.90
17918;DHT22;9084;50.956;3.106;2023-08-01T01:42:08;15.60;99.90
17918;DHT22;9084;50.956;3.106;2023-08-01T01:44:34;15.60;99.90
17918;DHT22;9084;50.956;3.106;2023-08-01T01:47:02;15.60;99.90
17918;DHT22;9084;50.956;3.106;2023-08-01T01:49:30;15.70;99.90
17918;DHT22;9084;50.956;3.106;2023-08-01T01:51:56;15.70;99.90
17918;DHT22;9084;50.956;3.106;2023-08-01T01:54:21;15.70;99.90
17918;DHT22;9084;50.956;3.106;2023-08-01T01:56:47;15.80;99.90
17918;DHT22;9084;50.956;3.106;2023-08-01T01:59:17;15.80;99.90
17918;DHT22;9084;50.956;3.106;2023-08-01T02:01:43;15.90;99.90
17918;DHT22;9084;50.956;3.106;2023-08-01T02:04:08;15.80;99.90
17918;DHT22;9084;50.956;3.106;2023-08-01T02:06:36;15.80;99.90
17918;DHT22;9084;50.956;3.106;2023-08-01T02:09:01;15.90;99.90
17918;DHT22;9084;50.956;3.106;2023-08-01T02:11:29;15.90;99.90
17918;DHT22;9084;50.956;3.106;2023-08-01T02:13:57;15.90;99.90
17918;DHT22;9084;50.956;3.106;2023-08-01T02:16:23;15.80;99.90
17918;DHT22;9084;50.956;3.106;2023-08-01T02:18:51;15.80;99.90
17918;DHT22;9084;50.956;3.106;2023-08-01T02:21:19;15.80;99.90
17918;DHT22;9084;50.956;3.106;2023-08-01T02:23:44;15.80;99.90
17918;DHT22;9084;50.956;3.106;2023-08-01T02:26:10;15.80;99.90
17918;DHT22;9084;50.956;3.106;2023-08-01T02:28:38;15.90;99.90
17918;DHT22;9084;50.956;3.106;2023-08-01T02:31:06;15.90;99.90
17918;DHT22;9084;50.956;3.106;2023-08-01T02:33:34;15.80;99.90
17918;DHT22;9084;50.956;3.106;2023-08-01T02:36:00;15.80;99.90
17918;DHT22;9084;50.956;3.106;2023-08-01T02:38:28;15.90;99.90
17918;DHT22;9084;50.956;3.106;2023-08-01T02:40:53;15.90;99.90
17918;DHT22;9084;50.956;3.106;2023-08-01T02:43:21;15.90;99.90
17918;DHT22;9084;50.956;3.106;2023-08-01T02:45:54;16.00;99.90
17918;DHT22;9084;50.956;3.106;2023-08-01T02:48:19;16.00;99.90
17918;DHT22;9084;50.956;3.106;2023-08-01T02:50:45;15.90;99.90
17918;DHT22;9084;50.956;3.106;2023-08-01T02:53:11;16.00;99.90
17918;DHT22;9084;50.956;3.106;2023-08-01T02:55:37;15.90;99.90
17918;DHT22;9084;50.956;3.106;2023-08-01T02:58:02;15.90;99.90
17918;DHT22;9084;50.956;3.106;2023-08-01T03:00:28;15.80;99.90
17918;DHT22;9084;50.956;3.106;2023-08-01T03:02:59;15.80;99.90
17918;DHT22;9084;50.956;3.106;2023-08-01T03:05:28;15.80;99.90
17918;DHT22;9084;50.956;3.106;2023-08-01T03:07:54;15.80;99.90
17918;DHT22;9084;50.956;3.106;2023-08-01T03:10:19;15.70;99.90
17918;DHT22;9084;50.956;3.106;2023-08-01T03:12:48;15.70;99.90
17918;DHT22;9084;50.956;3.106;2023-08-01T03:15:13;15.70;99.90
17918;DHT22;9084;50.956;3.106;2023-08-01T03:17:41;15.70;99.90
17918;DHT22;9084;50.956;3.106;2023-08-01T03:20:07;15.70;99.90
17918;DHT22;9084;50.956;3.106;2023-08-01T03:22:39;15.70;99.90
17918;DHT22;9084;50.956;3.106;2023-08-01T03:25:08;15.70;99.90
17918;DHT22;9084;50.956;3.106;2023-08-01T03:27:34;15.70;99.90
17918;DHT22;9084;50.956;3.106;2023-08-01T03:30:00;15.70;99.90
17918;DHT22;9084;50.956;3.106;2023-08-01T03:32:27;15.70;99.90
17918;DHT22;9084;50.956;3.106;2023-08-01T03:34:55;15.70;99.90
17918;DHT22;9084;50.956;3.106;2023-08-01T03:37:21;15.70;99.90
17918;DHT22;9084;50.956;3.106;2023-08-01T03:39:46;15.80;99.90
17918;DHT22;9084;50.956;3.106;2023-08-01T03:42:12;15.80;99.90
17918;DHT22;9084;50.956;3.106;2023-08-01T03:44:38;15.80;99.90
17918;DHT22;9084;50.956;3.106;2023-08-01T03:47:06;15.80;99.90
17918;DHT22;9084;50.956;3.106;2023-08-01T03:49:32;15.80;99.90
17918;DHT22;9084;50.956;3.106;2023-08-01T03:51:57;15.80;99.90
17918;DHT22;9084;50.956;3.106;2023-08-01T03:54:23;15.80;99.90
17918;DHT22;9084;50.956;3.106;2023-08-01T03:56:49;15.80;99.90
17918;DHT22;9084;50.956;3.106;2023-08-01T03:59:18;15.80;99.90
17918;DHT22;9084;50.956;3.106;2023-08-01T04:01:44;15.90;99.90
17918;DHT22;9084;50.956;3.106;2023-08-01T04:04:10;15.90;99.90
17918;DHT22;9084;50.956;3.106;2023-08-01T04:06:38;15.80;99.90
17918;DHT22;9084;50.956;3.106;2023-08-01T04:09:03;15.80;99.90
17918;DHT22;9084;50.956;3.106;2023-08-01T04:11:29;15.80;99.90
17918;DHT22;9084;50.956;3.106;2023-08-01T04:13:56;15.80;99.90
17918;DHT22;9084;50.956;3.106;2023-08-01T04:16:24;15.80;99.90
17918;DHT22;9084;50.956;3.106;2023-08-01T04:18:55;15.80;99.90
17918;DHT22;9084;50.956;3.106;2023-08-01T04:21:20;15.90;99.90
17918;DHT22;9084;50.956;3.106;2023-08-01T04:23:46;15.80;99.90
17918;DHT22;9084;50.956;3.106;2023-08-01T04:26:14;15.80;99.90
17918;DHT22;9084;50.956;3.106;2023-08-01T04:28:40;15.90;99.90
17918;DHT22;9084;50.956;3.106;2023-08-01T04:31:08;15.90;99.90
17918;DHT22;9084;50.956;3.106;2023-08-01T04:33:38;15.90;99.90
17918;DHT22;9084;50.956;3.106;2023-08-01T04:36:04;15.90;99.90
17918;DHT22;9084;50.956;3.106;2023-08-01T04:38:29;15.90;99.90
17918;DHT22;9084;50.956;3.106;2023-08-01T04:40:57;15.90;99.90
17918;DHT22;9084;50.956;3.106;2023-08-01T04:43:23;15.90;99.90
17918;DHT22;9084;50.956;3.106;2023-08-01T04:45:51;15.90;99.90
17918;DHT22;9084;50.956;3.106;2023-08-01T04:48:18;15.90;99.90
17918;DHT22;9084;50.956;3.106;2023-08-01T04:50:44;16.00;99.90
17918;DHT22;9084;50.956;3.106;2023-08-01T04:53:13;16.00;99.90
17918;DHT22;9084;50.956;3.106;2023-08-01T04:55:40;16.00;99.90
17918;DHT22;9084;50.956;3.106;2023-08-01T04:58:10;16.00;99.90
17918;DHT22;9084;50.956;3.106;2023-08-01T05:00:37;16.00;99.90
17918;DHT22;9084;50.956;3.106;2023-08-01T05:03:05;16.00;99.90
17918;DHT22;9084;50.956;3.106;2023-08-01T05:05:33;16.00;99.90
17918;DHT22;9084;50.956;3.106;2023-08-01T05:07:59;16.00;99.90
17918;DHT22;9084;50.956;3.106;2023-08-01T05:10:24;16.00;99.90
17918;DHT22;9084;50.956;3.106;2023-08-01T05:12:50;16.10;99.90
17918;DHT22;9084;50.956;3.106;2023-08-01T05:15:16;16.10;99.90
17918;DHT22;9084;50.956;3.106;2023-08-01T05:17:41;16.10;99.90
17918;DHT22;9084;50.956;3.106;2023-08-01T05:20:07;16.10;99.90
17918;DHT22;9084;50.956;3.106;2023-08-01T05:22:37;16.10;99.90
17918;DHT22;9084;50.956;3.106;2023-08-01T05:25:03;16.10;99.90
17918;DHT22;9084;50.956;3.106;2023-08-01T05:27:30;16.10;99.90
17918;DHT22;9084;50.956;3.106;2023-08-01T05:29:56;16.10;99.90
17918;DHT22;9084;50.956;3.106;2023-08-01T05:32:21;16.10;99.90
17918;DHT22;9084;50.956;3.106;2023-08-01T05:34:47;16.20;99.90
17918;DHT22;9084;50.956;3.106;2023-08-01T05:37:12;16.20;99.90
17918;DHT22;9084;50.956;3.106;2023-08-01T05:39:38;16.30;99.90
17918;DHT22;9084;50.956;3.106;2023-08-01T05:42:04;16.40;99.90
17918;DHT22;9084;50.956;3.106;2023-08-01T05:44:34;16.40;99.90
17918;DHT22;9084;50.956;3.106;2023-08-01T05:47:03;16.40;99.90
17918;DHT22;9084;50.956;3.106;2023-08-01T05:49:28;16.50;99.90
17918;DHT22;9084;50.956;3.106;2023-08-01T05:51:59;16.50;99.90
17918;DHT22;9084;50.956;3.106;2023-08-01T05:54:30;16.60;99.90
17918;DHT22;9084;50.956;3.106;2023-08-01T05:56:55;16.70;99.90
17918;DHT22;9084;50.956;3.106;2023-08-01T05:59:21;16.80;99.90
17918;DHT22;9084;50.956;3.106;2023-08-01T06:01:47;16.80;99.90
17918;DHT22;9084;50.956;3.106;2023-08-01T06:04:14;16.90;99.90
17918;DHT22;9084;50.956;3.106;2023-08-01T06:06:40;17.10;99.90
17918;DHT22;9084;50.956;3.106;2023-08-01T06:09:06;17.20;99.90
17918;DHT22;9084;50.956;3.106;2023-08-01T06:11:32;17.20;99.90
17918;DHT22;9084;50.956;3.106;2023-08-01T06:13:59;17.20;99.90
17918;DHT22;9084;50.956;3.106;2023-08-01T06:16:29;17.30;99.90
17918;DHT22;9084;50.956;3.106;2023-08-01T06:18:57;17.30;99.90
17918;DHT22;9084;50.956;3.106;2023-08-01T06:21:23;17.30;99.90
17918;DHT22;9084;50.956;3.106;2023-08-01T06:23:51;17.40;99.90
17918;DHT22;9084;50.956;3.106;2023-08-01T06:26:17;17.40;99.90
17918;DHT22;9084;50.956;3.106;2023-08-01T06:28:45;17.40;99.90
17918;DHT22;9084;50.956;3.106;2023-08-01T06:31:10;17.40;99.90
17918;DHT22;9084;50.956;3.106;2023-08-01T06:33:36;17.30;99.90
17918;DHT22;9084;50.956;3.106;2023-08-01T06:36:02;17.20;99.90
17918;DHT22;9084;50.956;3.106;2023-08-01T06:38:28;17.20;99.90
17918;DHT22;9084;50.956;3.106;2023-08-01T06:40:53;17.30;99.90
17918;DHT22;9084;50.956;3.106;2023-08-01T06:43:19;17.30;99.90
17918;DHT22;9084;50.956;3.106;2023-08-01T06:45:49;17.30;99.90
17918;DHT22;9084;50.956;3.106;2023-08-01T06:48:17;17.30;99.90
17918;DHT22;9084;50.956;3.106;2023-08-01T06:50:42;17.30;99.90
17918;DHT22;9084;50.956;3.106;2023-08-01T06:53:11;17.30;99.90
17918;DHT22;9084;50.956;3.106;2023-08-01T06:55:41;17.30;99.90
17918;DHT22;9084;50.956;3.106;2023-08-01T06:58:06;17.30;99.90
17918;DHT22;9084;50.956;3.106;2023-08-01T07:00:32;17.20;99.90
17918;DHT22;9084;50.956;3.106;2023-08-01T07:02:58;17.30;99.90
17918;DHT22;9084;50.956;3.106;2023-08-01T07:05:23;17.30;99.90
17918;DHT22;9084;50.956;3.106;2023-08-01T07:07:51;17.40;99.90
17918;DHT22;9084;50.956;3.106;2023-08-01T07:10:17;17.60;99.90
17918;DHT22;9084;50.956;3.106;2023-08-01T07:12:43;17.70;99.90
17918;DHT22;9084;50.956;3.106;2023-08-01T07:15:09;17.90;99.90
17918;DHT22;9084;50.956;3.106;2023-08-01T07:17:35;18.10;99.90
17918;DHT22;9084;50.956;3.106;2023-08-01T07:20:03;18.10;99.90
17918;DHT22;9084;50.956;3.106;2023-08-01T07:22:28;18.20;99.90
17918;DHT22;9084;50.956;3.106;2023-08-01T07:24:54;18.30;99.90
17918;DHT22;9084;50.956;3.106;2023-08-01T07:27:25;18.40;99.90
17918;DHT22;9084;50.956;3.106;2023-08-01T07:29:50;18.40;99.90
17918;DHT22;9084;50.956;3.106;2023-08-01T07:32:16;18.60;99.90
17918;DHT22;9084;50.956;3.106;2023-08-01T07:34:46;18.60;99.90
17918;DHT22;9084;50.956;3.106;2023-08-01T07:37:14;18.70;99.90
17918;DHT22;9084;50.956;3.106;2023-08-01T07:39:39;18.70;99.90
17918;DHT22;9084;50.956;3.106;2023-08-01T07:42:05;18.70;99.90
17918;DHT22;9084;50.956;3.106;2023-08-01T07:44:31;18.70;99.90
17918;DHT22;9084;50.956;3.106;2023-08-01T07:46:59;18.70;99.90
17918;DHT22;9084;50.956;3.106;2023-08-01T07:49:27;18.80;99.90
17918;DHT22;9084;50.956;3.106;2023-08-01T07:51:53;18.80;99.90
17918;DHT22;9084;50.956;3.106;2023-08-01T07:54:18;18.90;99.90
17918;DHT22;9084;50.956;3.106;2023-08-01T07:56:46;18.90;99.90
17918;DHT22;9084;50.956;3.106;2023-08-01T07:59:14;18.90;99.90
17918;DHT22;9084;50.956;3.106;2023-08-01T08:01:42;18.90;99.90
17918;DHT22;9084;50.956;3.106;2023-08-01T08:04:10;18.80;99.90
17918;DHT22;9084;50.956;3.106;2023-08-01T08:06:36;18.80;99.90
17918;DHT22;9084;50.956;3.106;2023-08-01T08:09:02;18.80;99.90
17918;DHT22;9084;50.956;3.106;2023-08-01T08:11:28;18.80;99.90
17918;DHT22;9084;50.956;3.106;2023-08-01T08:13:54;18.80;99.90
17918;DHT22;9084;50.956;3.106;2023-08-01T08:16:19;18.90;99.90
17918;DHT22;9084;50.956;3.106;2023-08-01T08:18:45;18.90;99.90
17918;DHT22;9084;50.956;3.106;2023-08-01T08:21:13;19.10;99.90
17918;DHT22;9084;50.956;3.106;2023-08-01T08:23:41;19.10;99.90
17918;DHT22;9084;50.956;3.106;2023-08-01T08:26:07;19.10;99.90
17918;DHT22;9084;50.956;3.106;2023-08-01T08:28:33;19.20;99.90
17918;DHT22;9084;50.956;3.106;2023-08-01T08:31:00;19.40;99.90
17918;DHT22;9084;50.956;3.106;2023-08-01T08:33:27;19.40;99.90
17918;DHT22;9084;50.956;3.106;2023-08-01T08:35:53;19.50;99.90
17918;DHT22;9084;50.956;3.106;2023-08-01T08:38:18;19.50;99.90
17918;DHT22;9084;50.956;3.106;2023-08-01T08:41:10;19.40;99.90
17918;DHT22;9084;50.956;3.106;2023-08-01T08:43:39;19.70;99.90
17918;DHT22;9084;50.956;3.106;2023-08-01T08:46:09;19.90;99.90
17918;DHT22;9084;50.956;3.106;2023-08-01T08:48:37;20.10;99.90
17918;DHT22;9084;50.956;3.106;2023-08-01T08:51:06;20.20;99.90
17918;DHT22;9084;50.956;3.106;2023-08-01T08:53:35;20.20;99.90
17918;DHT22;9084;50.956;3.106;2023-08-01T08:56:02;20.20;99.90
17918;DHT22;9084;50.956;3.106;2023-08-01T08:58:29;20.20;99.90
17918;DHT22;9084;50.956;3.106;2023-08-01T09:01:01;20.30;99.90
17918;DHT22;9084;50.956;3.106;2023-08-01T09:03:28;20.40;99.90
17918;DHT22;9084;50.956;3.106;2023-08-01T09:06:16;20.60;99.90
17918;DHT22;9084;50.956;3.106;2023-08-01T09:08:52;20.60;99.90
17918;DHT22;9084;50.956;3.106;2023-08-01T09:11:20;20.80;99.90
17918;DHT22;9084;50.956;3.106;2023-08-01T09:13:48;20.90;99.90
17918;DHT22;9084;50.956;3.106;2023-08-01T09:16:15;21.00;99.90
17918;DHT22;9084;50.956;3.106;2023-08-01T09:18:51;21.00;99.90
17918;DHT22;9084;50.956;3.106;2023-08-01T09:21:21;20.90;99.90
17918;DHT22;9084;50.956;3.106;2023-08-01T09:23:47;20.70;99.90
17918;DHT22;9084;50.956;3.106;2023-08-01T09:26:17;20.40;99.90
17918;DHT22;9084;50.956;3.106;2023-08-01T09:28:59;20.30;99.90
17918;DHT22;9084;50.956;3.106;2023-08-01T09:31:36;20.10;99.90
17918;DHT22;9084;50.956;3.106;2023-08-01T09:34:03;19.80;99.90
17918;DHT22;9084;50.956;3.106;2023-08-01T09:36:32;19.60;99.90
17918;DHT22;9084;50.956;3.106;2023-08-01T09:39:03;19.50;99.90
17918;DHT22;9084;50.956;3.106;2023-08-01T09:41:32;19.60;99.90
17918;DHT22;9084;50.956;3.106;2023-08-01T09:43:58;19.60;99.90
17918;DHT22;9084;50.956;3.106;2023-08-01T09:46:24;19.80;99.90
17918;DHT22;9084;50.956;3.106;2023-08-01T09:48:50;20.10;99.90
17918;DHT22;9084;50.956;3.106;2023-08-01T09:51:17;20.40;99.90
17918;DHT22;9084;50.956;3.106;2023-08-01T09:56:15;20.30;99.90
17918;DHT22;9084;50.956;3.106;2023-08-01T09:58:45;20.10;99.90
17918;DHT22;9084;50.956;3.106;2023-08-01T10:01:18;20.00;99.90
17918;DHT22;9084;50.956;3.106;2023-08-01T10:03:48;20.00;99.90
17918;DHT22;9084;50.956;3.106;2023-08-01T10:06:20;19.90;99.90
17918;DHT22;9084;50.956;3.106;2023-08-01T10:08:50;19.90;99.90
17918;DHT22;9084;50.956;3.106;2023-08-01T10:11:18;20.10;99.90
17918;DHT22;9084;50.956;3.106;2023-08-01T10:13:44;20.20;99.90
17918;DHT22;9084;50.956;3.106;2023-08-01T10:16:11;20.50;99.90
17918;DHT22;9084;50.956;3.106;2023-08-01T10:18:39;20.80;99.90
17918;DHT22;9084;50.956;3.106;2023-08-01T10:21:06;21.10;99.90
17918;DHT22;9084;50.956;3.106;2023-08-01T10:23:35;21.60;99.00
17918;DHT22;9084;50.956;3.106;2023-08-01T10:26:07;22.00;94.90
17918;DHT22;9084;50.956;3.106;2023-08-01T10:28:35;22.20;93.50
17918;DHT22;9084;50.956;3.106;2023-08-01T10:31:18;22.20;93.90
17918;DHT22;9084;50.956;3.106;2023-08-01T10:33:47;22.00;93.30
17918;DHT22;9084;50.956;3.106;2023-08-01T10:36:14;21.50;96.20
17918;DHT22;9084;50.956;3.106;2023-08-01T10:38:50;21.00;98.60
17918;DHT22;9084;50.956;3.106;2023-08-01T10:41:32;20.60;99.90
17918;DHT22;9084;50.956;3.106;2023-08-01T10:44:06;20.50;99.50
17918;DHT22;9084;50.956;3.106;2023-08-01T10:49:16;20.40;99.90
17918;DHT22;9084;50.956;3.106;2023-08-01T10:51:43;20.50;99.90
17918;DHT22;9084;50.956;3.106;2023-08-01T10:54:22;20.50;99.90
17918;DHT22;9084;50.956;3.106;2023-08-01T10:56:52;20.40;99.90
17918;DHT22;9084;50.956;3.106;2023-08-01T10:59:19;20.40;99.90
17918;DHT22;9084;50.956;3.106;2023-08-01T11:01:52;20.00;99.90
17918;DHT22;9084;50.956;3.106;2023-08-01T11:04:20;19.70;99.90
17918;DHT22;9084;50.956;3.106;2023-08-01T11:06:48;19.40;99.90
17918;DHT22;9084;50.956;3.106;2023-08-01T11:09:19;19.30;99.90
17918;DHT22;9084;50.956;3.106;2023-08-01T11:11:46;19.30;99.90
17918;DHT22;9084;50.956;3.106;2023-08-01T11:14:20;19.40;99.90
17918;DHT22;9084;50.956;3.106;2023-08-01T11:16:47;19.60;99.90
17918;DHT22;9084;50.956;3.106;2023-08-01T11:19:26;19.60;99.90
17918;DHT22;9084;50.956;3.106;2023-08-01T11:21:53;19.90;99.90
17918;DHT22;9084;50.956;3.106;2023-08-01T11:24:22;20.10;99.90
17918;DHT22;9084;50.956;3.106;2023-08-01T11:26:54;20.50;99.90
17918;DHT22;9084;50.956;3.106;2023-08-01T11:29:20;20.80;99.90
17918;DHT22;9084;50.956;3.106;2023-08-01T11:31:56;21.10;99.90
17918;DHT22;9084;50.956;3.106;2023-08-01T11:34:24;21.40;99.90
17918;DHT22;9084;50.956;3.106;2023-08-01T11:36:55;21.60;99.90
17918;DHT22;9084;50.956;3.106;2023-08-01T11:39:21;21.70;99.90
17918;DHT22;9084;50.956;3.106;2023-08-01T11:41:47;21.90;99.90
17918;DHT22;9084;50.956;3.106;2023-08-01T11:44:13;21.80;99.90
17918;DHT22;9084;50.956;3.106;2023-08-01T11:46:42;21.70;98.90
17918;DHT22;9084;50.956;3.106;2023-08-01T11:49:08;21.70;98.30
17918;DHT22;9084;50.956;3.106;2023-08-01T11:51:44;21.70;98.30
17918;DHT22;9084;50.956;3.106;2023-08-01T11:54:10;22.00;97.20
17918;DHT22;9084;50.956;3.106;2023-08-01T11:56:40;22.10;94.50
17918;DHT22;9084;50.956;3.106;2023-08-01T12:01:43;22.30;93.50
17918;DHT22;9084;50.956;3.106;2023-08-01T12:04:27;22.50;92.60
17918;DHT22;9084;50.956;3.106;2023-08-01T12:06:52;22.70;91.40
17918;DHT22;9084;50.956;3.106;2023-08-01T12:09:19;22.80;90.60
17918;DHT22;9084;50.956;3.106;2023-08-01T12:11:45;22.80;90.30
17918;DHT22;9084;50.956;3.106;2023-08-01T12:14:15;22.80;90.10
17918;DHT22;9084;50.956;3.106;2023-08-01T12:16:44;22.90;91.00
17918;DHT22;9084;50.956;3.106;2023-08-01T12:19:12;22.90;91.40
17918;DHT22;9084;50.956;3.106;2023-08-01T12:21:41;23.00;91.10
17918;DHT22;9084;50.956;3.106;2023-08-01T12:24:09;23.00;91.60
17918;DHT22;9084;50.956;3.106;2023-08-01T12:26:40;22.90;91.00
17918;DHT22;9084;50.956;3.106;2023-08-01T12:29:05;22.60;91.20
17918;DHT22;9084;50.956;3.106;2023-08-01T12:31:31;22.10;92.20
17918;DHT22;9084;50.956;3.106;2023-08-01T12:33:59;21.80;92.60
17918;DHT22;9084;50.956;3.106;2023-08-01T12:36:25;21.40;92.90
17918;DHT22;9084;50.956;3.106;2023-08-01T12:38:52;21.20;95.10
17918;DHT22;9084;50.956;3.106;2023-08-01T12:41:17;21.10;94.40
17918;DHT22;9084;50.956;3.106;2023-08-01T12:43:43;21.00;95.60
17918;DHT22;9084;50.956;3.106;2023-08-01T12:46:11;21.20;96.50
17918;DHT22;9084;50.956;3.106;2023-08-01T12:48:37;21.40;94.50
17918;DHT22;9084;50.956;3.106;2023-08-01T12:51:04;21.60;92.90
17918;DHT22;9084;50.956;3.106;2023-08-01T12:53:30;21.70;93.60
17918;DHT22;9084;50.956;3.106;2023-08-01T12:55:58;21.90;93.70
17918;DHT22;9084;50.956;3.106;2023-08-01T12:58:23;22.00;93.40
17918;DHT22;9084;50.956;3.106;2023-08-01T13:00:49;22.10;92.60
17918;DHT22;9084;50.956;3.106;2023-08-01T13:03:15;22.10;92.90
17918;DHT22;9084;50.956;3.106;2023-08-01T13:05:42;21.90;92.10
17918;DHT22;9084;50.956;3.106;2023-08-01T13:08:08;21.60;92.60
17918;DHT22;9084;50.956;3.106;2023-08-01T13:10:36;21.50;93.50
17918;DHT22;9084;50.956;3.106;2023-08-01T13:13:02;21.70;95.10
17918;DHT22;9084;50.956;3.106;2023-08-01T13:15:28;21.90;93.90
17918;DHT22;9084;50.956;3.106;2023-08-01T13:17:56;22.00;91.50
17918;DHT22;9084;50.956;3.106;2023-08-01T13:20:22;22.10;91.40
17918;DHT22;9084;50.956;3.106;2023-08-01T13:22:51;21.90;91.70
17918;DHT22;9084;50.956;3.106;2023-08-01T13:25:22;21.70;91.80
17918;DHT22;9084;50.956;3.106;2023-08-01T13:27:47;21.40;93.00
17918;DHT22;9084;50.956;3.106;2023-08-01T13:30:13;21.20;94.10
17918;DHT22;9084;50.956;3.106;2023-08-01T13:32:43;21.00;99.90
17918;DHT22;9084;50.956;3.106;2023-08-01T13:35:10;20.30;99.90
17918;DHT22;9084;50.956;3.106;2023-08-01T13:37:38;19.90;99.90
17918;DHT22;9084;50.956;3.106;2023-08-01T13:40:06;19.40;99.90
17918;DHT22;9084;50.956;3.106;2023-08-01T13:42:32;19.10;99.90
17918;DHT22;9084;50.956;3.106;2023-08-01T13:45:01;19.00;99.90
17918;DHT22;9084;50.956;3.106;2023-08-01T13:47:31;18.90;99.90
17918;DHT22;9084;50.956;3.106;2023-08-01T13:49:57;18.90;99.90
17918;DHT22;9084;50.956;3.106;2023-08-01T13:52:25;18.80;99.90
17918;DHT22;9084;50.956;3.106;2023-08-01T13:54:51;18.60;99.90
17918;DHT22;9084;50.956;3.106;2023-08-01T13:57:16;18.30;99.90
17918;DHT22;9084;50.956;3.106;2023-08-01T13:59:42;18.20;99.90
17918;DHT22;9084;50.956;3.106;2023-08-01T14:02:10;18.20;99.90
17918;DHT22;9084;50.956;3.106;2023-08-01T14:04:36;18.20;99.90
17918;DHT22;9084;50.956;3.106;2023-08-01T14:07:04;18.20;99.90
17918;DHT22;9084;50.956;3.106;2023-08-01T14:09:30;18.30;99.90
17918;DHT22;9084;50.956;3.106;2023-08-01T14:11:58;18.50;99.90
17918;DHT22;9084;50.956;3.106;2023-08-01T14:14:23;18.60;99.90
17918;DHT22;9084;50.956;3.106;2023-08-01T14:16:49;18.60;99.90
17918;DHT22;9084;50.956;3.106;2023-08-01T14:19:15;18.60;99.90
17918;DHT22;9084;50.956;3.106;2023-08-01T14:21:40;18.60;99.90
17918;DHT22;9084;50.956;3.106;2023-08-01T14:24:06;18.60;99.90
17918;DHT22;9084;50.956;3.106;2023-08-01T14:26:34;18.70;99.90
17918;DHT22;9084;50.956;3.106;2023-08-01T14:29:02;18.80;99.90
17918;DHT22;9084;50.956;3.106;2023-08-01T14:31:27;19.40;99.90
17918;DHT22;9084;50.956;3.106;2023-08-01T14:33:53;20.00;99.90
17918;DHT22;9084;50.956;3.106;2023-08-01T14:36:21;20.20;99.90
17918;DHT22;9084;50.956;3.106;2023-08-01T14:38:46;20.30;99.90
17918;DHT22;9084;50.956;3.106;2023-08-01T14:41:16;20.10;99.90
17918;DHT22;9084;50.956;3.106;2023-08-01T14:43:42;20.10;99.90
17918;DHT22;9084;50.956;3.106;2023-08-01T14:46:10;20.00;99.90
17918;DHT22;9084;50.956;3.106;2023-08-01T14:48:35;20.00;99.90
17918;DHT22;9084;50.956;3.106;2023-08-01T14:51:07;19.90;99.90
17918;DHT22;9084;50.956;3.106;2023-08-01T14:53:33;19.90;99.90
17918;DHT22;9084;50.956;3.106;2023-08-01T14:55:58;20.00;99.90
17918;DHT22;9084;50.956;3.106;2023-08-01T14:58:25;20.00;99.90
17918;DHT22;9084;50.956;3.106;2023-08-01T15:00:51;19.90;99.90
17918;DHT22;9084;50.956;3.106;2023-08-01T15:03:19;19.70;99.90
17918;DHT22;9084;50.956;3.106;2023-08-01T15:05:47;19.50;99.90
17918;DHT22;9084;50.956;3.106;2023-08-01T15:08:15;19.40;99.90
17918;DHT22;9084;50.956;3.106;2023-08-01T15:10:41;19.40;99.90
17918;DHT22;9084;50.956;3.106;2023-08-01T15:13:06;19.60;99.90
17918;DHT22;9084;50.956;3.106;2023-08-01T15:15:36;19.80;99.90
17918;DHT22;9084;50.956;3.106;2023-08-01T15:18:02;20.10;99.90
17918;DHT22;9084;50.956;3.106;2023-08-01T15:20:28;20.40;99.90
17918;DHT22;9084;50.956;3.106;2023-08-01T15:22:54;20.60;99.90
17918;DHT22;9084;50.956;3.106;2023-08-01T15:25:22;20.60;99.90
17918;DHT22;9084;50.956;3.106;2023-08-01T15:27:50;20.70;99.90
17918;DHT22;9084;50.956;3.106;2023-08-01T15:30:22;21.00;99.90
17918;DHT22;9084;50.956;3.106;2023-08-01T15:32:52;21.30;99.90
17918;DHT22;9084;50.956;3.106;2023-08-01T15:35:18;21.50;99.90
17918;DHT22;9084;50.956;3.106;2023-08-01T15:37:43;21.60;99.90
17918;DHT22;9084;50.956;3.106;2023-08-01T15:40:12;21.60;99.90
17918;DHT22;9084;50.956;3.106;2023-08-01T15:42:37;21.70;99.90
17918;DHT22;9084;50.956;3.106;2023-08-01T15:45:06;22.00;99.90
17918;DHT22;9084;50.956;3.106;2023-08-01T15:47:31;22.00;99.80
17918;DHT22;9084;50.956;3.106;2023-08-01T15:49:57;22.10;99.80
17918;DHT22;9084;50.956;3.106;2023-08-01T15:52:23;22.00;99.90
17918;DHT22;9084;50.956;3.106;2023-08-01T15:54:51;22.00;99.90